Time,TemperatureF,DewpointF,PressureIn,WindDirection,WindDirectionDegrees,WindSpeedMPH,WindSpeedGustMPH,Humidity,HourlyPrecipIn,Conditions,Clouds,dailyrainin,SolarRadiationWatts/m^2,SoftwareType,DateUTC
2013-11-05 00:03:00,36.0,36.0,-100.00,SSE,163,3.0,3.0,100,0.00,,,0.16,0.000000,,2013-11-05 06:03:00,
2013-11-05 00:42:00,33.0,33.0,-100.00,SE,125,0.0,3.0,100,0.00,,,0.16,0.000000,,2013-11-05 06:42:00,
2013-11-05 00:52:00,33.0,33.0,-100.00,SE,125,0.0,3.0,100,0.00,,,0.16,0.000000,,2013-11-05 06:52:00,
2013-11-05 01:02:00,33.0,33.0,-100.00,SE,125,0.0,3.0,100,0.00,,,0.16,0.000000,,2013-11-05 07:02:00,
2013-11-05 01:43:00,31.0,31.0,-100.00,SSE,152,0.0,2.0,100,0.00,,,0.16,0.000000,,2013-11-05 07:43:00,
2013-11-05 01:52:00,31.0,31.0,-100.00,SSE,152,0.0,2.0,100,0.00,,,0.16,0.000000,,2013-11-05 07:52:00,
2013-11-05 02:02:00,31.0,31.0,-100.00,SSE,152,0.0,2.0,100,0.00,,,0.16,0.000000,,2013-11-05 08:02:00,
2013-11-05 02:42:00,31.0,31.0,-100.00,SE,138,0.0,2.0,100,0.00,,,0.16,0.000000,,2013-11-05 08:42:00,
2013-11-05 02:52:00,31.0,31.0,-100.00,SE,138,0.0,2.0,100,0.00,,,0.16,0.000000,,2013-11-05 08:52:00,
2013-11-05 03:02:00,31.0,31.0,-100.00,SE,138,0.0,2.0,100,0.00,,,0.16,0.000000,,2013-11-05 09:02:00,
2013-11-05 03:43:00,29.0,29.0,-100.00,SE,133,0.0,1.0,100,0.00,,,0.16,0.000000,,2013-11-05 09:43:00,
2013-11-05 03:53:00,29.0,29.0,-100.00,SE,133,0.0,1.0,100,0.00,,,0.16,0.000000,,2013-11-05 09:53:00,
2013-11-05 04:02:00,29.0,29.0,-100.00,SE,133,0.0,1.0,100,0.00,,,0.16,0.000000,,2013-11-05 10:02:00,
2013-11-05 04:43:00,28.0,28.0,-100.00,WNW,288,0.0,1.0,100,0.00,,,0.16,0.000000,,2013-11-05 10:43:00,
2013-11-05 04:53:00,28.0,28.0,-100.00,WNW,288,0.0,1.0,100,0.00,,,0.16,0.000000,,2013-11-05 10:53:00,
2013-11-05 05:02:00,28.0,28.0,-100.00,WNW,288,0.0,1.0,100,0.00,,,0.16,0.000000,,2013-11-05 11:02:00,
2013-11-05 05:42:00,29.0,29.0,-100.00,SW,214,0.0,2.0,100,0.00,,,0.16,0.000000,,2013-11-05 11:42:00,
2013-11-05 05:52:00,29.0,29.0,-100.00,SW,214,0.0,2.0,100,0.00,,,0.16,0.000000,,2013-11-05 11:52:00,
2013-11-05 06:02:00,29.0,29.0,-100.00,SW,214,0.0,2.0,100,0.00,,,0.16,0.000000,,2013-11-05 12:02:00,
2013-11-05 06:42:00,29.0,29.0,-100.00,WSW,253,0.0,1.0,100,0.00,,,0.16,0.000000,,2013-11-05 12:42:00,
2013-11-05 06:52:00,29.0,29.0,-100.00,WSW,253,0.0,1.0,100,0.00,,,0.16,0.000000,,2013-11-05 12:52:00,
2013-11-05 07:01:00,29.0,29.0,-100.00,WSW,253,0.0,1.0,100,0.00,,,0.16,0.000000,,2013-11-05 13:01:00,
2013-11-05 07:42:00,28.0,28.0,-100.00,SSW,213,0.0,0.0,100,0.00,,,0.16,2.000000,,2013-11-05 13:42:00,
2013-11-05 07:52:00,28.0,28.0,-100.00,SSW,213,0.0,0.0,100,0.00,,,0.16,2.000000,,2013-11-05 13:52:00,
2013-11-05 08:02:00,28.0,28.0,-100.00,SSW,213,0.0,0.0,100,0.00,,,0.16,2.000000,,2013-11-05 14:02:00,
2013-11-05 08:42:00,29.0,29.0,-100.00,NE,37,0.0,2.0,100,0.00,,,0.16,50.000000,,2013-11-05 14:42:00,
2013-11-05 08:52:00,29.0,29.0,-100.00,NE,37,0.0,2.0,100,0.00,,,0.16,50.000000,,2013-11-05 14:52:00,
2013-11-05 09:02:00,29.0,29.0,-100.00,NE,37,0.0,2.0,100,0.00,,,0.16,50.000000,,2013-11-05 15:02:00,
2013-11-05 09:43:00,32.0,32.0,-100.00,NNE,28,0.0,3.0,100,0.00,,,0.13,121.000000,,2013-11-05 15:43:00,
2013-11-05 09:53:00,32.0,32.0,-100.00,NNE,28,0.0,3.0,100,0.00,,,0.13,121.000000,,2013-11-05 15:53:00,
2013-11-05 10:03:00,32.0,32.0,-100.00,NNE,28,0.0,3.0,100,0.00,,,0.13,121.000000,,2013-11-05 16:03:00,
2013-11-05 10:43:00,37.0,37.0,-100.00,North,0,0.0,4.0,100,0.00,,,0.11,215.000000,,2013-11-05 16:43:00,
2013-11-05 10:53:00,37.0,37.0,-100.00,North,0,0.0,4.0,100,0.00,,,0.11,215.000000,,2013-11-05 16:53:00,
2013-11-05 11:02:00,37.0,37.0,-100.00,North,0,0.0,4.0,100,0.00,,,0.11,215.000000,,2013-11-05 17:02:00,
2013-11-05 11:42:00,38.0,38.0,-100.00,NNW,341,2.0,5.0,100,0.00,,,0.11,148.000000,,2013-11-05 17:42:00,
2013-11-05 11:52:00,38.0,38.0,-100.00,NNW,341,2.0,5.0,100,0.00,,,0.11,148.000000,,2013-11-05 17:52:00,
2013-11-05 12:02:00,38.0,38.0,-100.00,NNW,341,2.0,5.0,100,0.00,,,0.11,148.000000,,2013-11-05 18:02:00,
2013-11-05 12:42:00,40.0,40.0,-100.00,North,2,3.0,5.0,100,0.00,,,0.10,130.000000,,2013-11-05 18:42:00,
2013-11-05 12:52:00,40.0,40.0,-100.00,North,2,3.0,5.0,100,0.00,,,0.10,130.000000,,2013-11-05 18:52:00,
2013-11-05 13:02:00,40.0,40.0,-100.00,North,2,3.0,5.0,100,0.00,,,0.10,130.000000,,2013-11-05 19:02:00,
2013-11-05 13:42:00,41.0,41.0,-100.00,NE,43,2.0,6.0,100,0.00,,,0.07,109.000000,,2013-11-05 19:42:00,
2013-11-05 13:52:00,41.0,41.0,-100.00,NE,43,2.0,6.0,100,0.00,,,0.07,109.000000,,2013-11-05 19:52:00,
2013-11-05 14:02:00,41.0,41.0,-100.00,NE,43,2.0,6.0,100,0.00,,,0.07,109.000000,,2013-11-05 20:02:00,
2013-11-05 14:43:00,42.0,42.0,-100.00,NNE,15,4.0,8.0,100,0.00,,,0.01,66.000000,,2013-11-05 20:43:00,
2013-11-05 14:53:00,42.0,42.0,-100.00,NNE,15,4.0,8.0,100,0.00,,,0.01,66.000000,,2013-11-05 20:53:00,
2013-11-05 15:02:00,42.0,42.0,-100.00,NNE,15,4.0,8.0,100,0.00,,,0.01,66.000000,,2013-11-05 21:02:00,
2013-11-05 15:44:00,43.0,42.0,-100.00,ENE,71,3.0,7.0,95,0.00,,,0.01,89.000000,,2013-11-05 21:44:00,
2013-11-05 15:54:00,43.0,42.0,-100.00,ENE,71,3.0,7.0,95,0.00,,,0.01,89.000000,,2013-11-05 21:54:00,
2013-11-05 16:04:00,43.0,42.0,-100.00,ENE,71,3.0,7.0,95,0.00,,,0.01,89.000000,,2013-11-05 22:04:00,
2013-11-05 16:44:00,43.0,42.0,-100.00,NNE,17,3.0,7.0,97,0.00,,,0.01,18.000000,,2013-11-05 22:44:00,
2013-11-05 16:53:00,43.0,42.0,-100.00,NNE,17,3.0,7.0,97,0.00,,,0.01,18.000000,,2013-11-05 22:53:00,
2013-11-05 17:03:00,43.0,42.0,-100.00,NNE,17,3.0,7.0,97,0.00,,,0.01,18.000000,,2013-11-05 23:03:00,
2013-11-05 17:42:00,42.0,42.0,-100.00,North,359,5.0,9.0,100,0.05,,,0.06,1.000000,,2013-11-05 23:42:00,
2013-11-05 17:53:00,42.0,42.0,-100.00,North,359,5.0,9.0,100,0.05,,,0.06,1.000000,,2013-11-05 23:53:00,
2013-11-05 18:03:00,42.0,42.0,-100.00,North,359,5.0,9.0,100,0.05,,,0.06,1.000000,,2013-11-06 00:03:00,
2013-11-05 18:42:00,41.0,39.0,-100.00,NNE,26,6.0,13.0,92,0.09,,,0.14,0.000000,,2013-11-06 00:42:00,
2013-11-05 18:52:00,41.0,39.0,-100.00,NNE,26,6.0,13.0,92,0.09,,,0.14,0.000000,,2013-11-06 00:52:00,
2013-11-05 19:02:00,41.0,39.0,-100.00,NNE,26,6.0,13.0,92,0.09,,,0.14,0.000000,,2013-11-06 01:02:00,
2013-11-05 19:42:00,40.0,39.0,-100.00,NNE,20,6.0,11.0,96,0.05,,,0.19,0.000000,,2013-11-06 01:42:00,
2013-11-05 19:52:00,40.0,39.0,-100.00,NNE,20,6.0,11.0,96,0.05,,,0.19,0.000000,,2013-11-06 01:52:00,
2013-11-05 20:02:00,40.0,39.0,-100.00,NNE,20,6.0,11.0,96,0.05,,,0.19,0.000000,,2013-11-06 02:02:00,
2013-11-05 20:42:00,39.0,38.0,-100.00,NNE,13,8.0,16.0,95,0.06,,,0.25,0.000000,,2013-11-06 02:42:00,
2013-11-05 20:52:00,39.0,38.0,-100.00,NNE,13,8.0,16.0,95,0.06,,,0.25,0.000000,,2013-11-06 02:52:00,
2013-11-05 21:02:00,39.0,38.0,-100.00,NNE,13,8.0,16.0,95,0.06,,,0.25,0.000000,,2013-11-06 03:02:00,
2013-11-05 21:05:00,38.0,37.0,-100.00,NNE,20,7.0,15.0,98,0.03,,,0.28,0.000000,,2013-11-06 03:05:00,
2013-11-05 21:44:00,38.0,37.0,-100.00,NNE,20,7.0,15.0,98,0.03,,,0.28,0.000000,,2013-11-06 03:44:00,
2013-11-05 21:55:00,38.0,37.0,-100.00,NNE,20,7.0,15.0,98,0.03,,,0.28,0.000000,,2013-11-06 03:55:00,
2013-11-05 22:43:00,36.0,36.0,-100.00,NNE,18,6.0,13.0,100,0.12,,,0.40,0.000000,,2013-11-06 04:43:00,
2013-11-05 22:53:00,36.0,36.0,-100.00,NNE,18,6.0,13.0,100,0.12,,,0.40,0.000000,,2013-11-06 04:53:00,
2013-11-05 23:03:00,36.0,36.0,-100.00,NNE,18,6.0,13.0,100,0.12,,,0.40,0.000000,,2013-11-06 05:03:00,
2013-11-05 23:44:00,36.0,36.0,-100.00,NNE,17,8.0,14.0,100,0.06,,,0.46,0.000000,,2013-11-06 05:44:00,
2013-11-05 23:53:00,36.0,36.0,-100.00,NNE,17,8.0,14.0,100,0.06,,,0.46,0.000000,,2013-11-06 05:53:00,